Time;durP1;ratioP1;P1;durP2;ratioP2;P2;SDS_P1;SDS_P2;PMS_P1;PMS_P2;Temp;Humidity;BMP_temperature;BMP_pressure;BME280_temperature;BME280_humidity;BME280_pressure;Samples;Min_cycle;Max_cycle;Signal;HPM_P1;HPM_P2
2023/05/10 00:00:04;;;;;;;0.83;0.80;;;14.70;99.90;;;;;;5086333;28;20233;-39
2023/05/10 00:02:41;;;;;;;0.77;0.67;;;14.60;99.90;;;;;;5084226;28;20262;-37
2023/05/10 00:05:09;;;;;;;1.30;0.60;;;14.60;99.90;;;;;;5070456;28;20177;-41
2023/05/10 00:07:36;;;;;;;0.50;0.50;;;14.50;99.90;;;;;;5065123;28;20200;-37
2023/05/10 00:10:02;;;;;;;2.07;0.60;;;14.40;99.90;;;;;;5072968;28;20193;-39
2023/05/10 00:12:28;;;;;;;0.77;0.50;;;14.40;99.90;;;;;;5090190;28;20192;-36
2023/05/10 00:14:54;;;;;;;1.20;0.50;;;14.40;99.90;;;;;;5090620;28;20176;-37
2023/05/10 00:17:20;;;;;;;1.33;0.57;;;14.30;99.90;;;;;;5089008;28;20203;-38
2023/05/10 00:19:46;;;;;;;0.57;0.57;;;14.30;99.90;;;;;;5074900;28;20188;-36
2023/05/10 00:22:12;;;;;;;1.27;0.53;;;14.30;99.90;;;;;;5071469;28;20187;-36
2023/05/10 00:24:38;;;;;;;1.27;0.50;;;14.20;99.90;;;;;;5071901;28;20173;-38
2023/05/10 00:27:03;;;;;;;0.40;0.40;;;14.20;99.90;;;;;;5091080;28;20230;-36
2023/05/10 00:29:31;;;;;;;0.80;0.50;;;14.20;99.90;;;;;;5072697;28;20250;-36
2023/05/10 00:31:59;;;;;;;0.60;0.60;;;14.10;99.90;;;;;;5072074;28;20180;-37
2023/05/10 00:34:25;;;;;;;2.17;0.60;;;14.10;99.90;;;;;;5091036;28;20185;-36
2023/05/10 00:36:51;;;;;;;0.40;0.40;;;14.10;99.90;;;;;;5070359;28;20205;-36
2023/05/10 00:39:18;;;;;;;1.33;0.50;;;14.10;99.90;;;;;;5076503;28;20279;-37
2023/05/10 00:41:44;;;;;;;0.40;0.40;;;14.10;99.90;;;;;;5079486;28;20697;-37
2023/05/10 00:44:10;;;;;;;1.17;0.40;;;14.10;99.90;;;;;;5084120;28;20258;-36
2023/05/10 00:46:36;;;;;;;0.40;0.40;;;14.20;99.90;;;;;;5088809;28;20189;-36
2023/05/10 00:49:02;;;;;;;0.40;0.40;;;14.20;99.90;;;;;;5073668;28;20210;-37
2023/05/10 00:51:29;;;;;;;1.37;0.50;;;14.20;99.90;;;;;;5091681;28;20169;-34
2023/05/10 00:53:55;;;;;;;0.30;0.30;;;14.30;99.90;;;;;;5074770;28;20234;-34
2023/05/10 00:56:23;;;;;;;0.30;0.30;;;14.30;99.90;;;;;;5054787;28;20205;-34
2023/05/10 00:58:49;;;;;;;3.30;0.40;;;14.30;99.90;;;;;;5069839;28;20200;-34
2023/05/10 01:01:15;;;;;;;1.60;0.30;;;14.30;99.90;;;;;;5085099;28;20168;-34
2023/05/10 01:03:41;;;;;;;0.23;0.23;;;14.30;99.90;;;;;;5076475;28;20188;-34
2023/05/10 01:06:09;;;;;;;0.20;0.20;;;14.30;99.90;;;;;;5089375;28;20179;-34
2023/05/10 01:08:36;;;;;;;0.33;0.20;;;14.30;99.90;;;;;;5087466;28;20215;-34
2023/05/10 01:11:02;;;;;;;0.30;0.30;;;14.30;99.90;;;;;;5089666;28;20210;-34
2023/05/10 01:13:40;;;;;;;0.57;0.30;;;14.30;99.90;;;;;;5089760;28;20173;-34
2023/05/10 01:16:07;;;;;;;0.27;0.27;;;14.20;99.90;;;;;;5089228;28;20215;-35
2023/05/10 01:18:40;;;;;;;0.80;0.30;;;14.20;99.90;;;;;;5085387;28;20207;-34
2023/05/10 01:21:37;;;;;;;0.20;0.20;;;14.20;99.90;;;;;;5071396;28;20700;-34
2023/05/10 01:24:29;;;;;;;0.50;0.30;;;14.20;99.90;;;;;;5074592;28;20230;-34
2023/05/10 01:27:07;;;;;;;0.37;0.30;;;14.20;99.90;;;;;;5085483;28;20193;-34
2023/05/10 01:29:51;;;;;;;0.67;0.40;;;14.10;99.90;;;;;;5069858;28;20215;-34
2023/05/10 01:32:35;;;;;;;1.13;0.30;;;14.10;99.90;;;;;;5070890;28;20185;-35
2023/05/10 01:35:10;;;;;;;2.30;0.47;;;14.10;99.90;;;;;;5076699;28;20190;-34
2023/05/10 01:37:56;;;;;;;0.23;0.23;;;14.10;99.90;;;;;;5087736;28;20242;-34
2023/05/10 01:40:41;;;;;;;1.70;0.30;;;14.00;99.90;;;;;;5084834;28;20176;-34
2023/05/10 01:43:16;;;;;;;0.27;0.27;;;14.00;99.90;;;;;;5088833;28;20196;-36
2023/05/10 01:46:04;;;;;;;0.70;0.30;;;14.00;99.90;;;;;;5078801;28;20177;-35
2023/05/10 01:48:32;;;;;;;0.40;0.40;;;14.00;99.90;;;;;;5078729;28;20189;-34
2023/05/10 01:51:00;;;;;;;0.33;0.33;;;14.00;99.90;;;;;;5089279;28;20180;-34
2023/05/10 01:53:27;;;;;;;0.60;0.40;;;13.90;99.90;;;;;;5069255;28;20173;-34
2023/05/10 01:55:55;;;;;;;0.90;0.40;;;14.00;99.90;;;;;;5071392;28;20180;-34
2023/05/10 01:58:33;;;;;;;0.70;0.60;;;14.00;99.90;;;;;;5089255;28;20193;-35
2023/05/10 02:01:03;;;;;;;0.73;0.33;;;14.00;99.90;;;;;;5077947;28;20177;-34
2023/05/10 02:03:32;;;;;;;3.50;0.47;;;14.00;99.90;;;;;;5068851;28;20260;-35
2023/05/10 02:06:05;;;;;;;0.50;0.50;;;14.10;99.90;;;;;;5088518;28;20265;-37
2023/05/10 02:08:35;;;;;;;1.97;0.83;;;14.10;99.90;;;;;;5098664;28;20217;-36
2023/05/10 02:11:05;;;;;;;1.47;0.40;;;14.00;99.90;;;;;;5086996;28;20217;-37
2023/05/10 02:13:33;;;;;;;1.27;0.43;;;14.00;99.90;;;;;;5089553;28;20662;-37
2023/05/10 02:16:01;;;;;;;2.20;0.60;;;14.00;99.90;;;;;;5072553;28;20191;-35
2023/05/10 02:18:27;;;;;;;0.83;0.50;;;14.00;99.90;;;;;;5076497;28;20201;-35
2023/05/10 02:20:54;;;;;;;0.40;0.40;;;13.90;99.90;;;;;;5069344;28;20185;-38
2023/05/10 02:23:21;;;;;;;0.40;0.40;;;13.90;99.90;;;;;;5084510;28;20173;-36
2023/05/10 02:25:49;;;;;;;0.97;0.50;;;13.90;99.90;;;;;;5073948;28;20208;-35
2023/05/10 02:28:16;;;;;;;0.60;0.60;;;13.90;99.90;;;;;;5060842;28;20197;-36
2023/05/10 02:30:43;;;;;;;1.00;0.50;;;14.00;99.90;;;;;;5056245;28;20169;-37
2023/05/10 02:33:11;;;;;;;1.43;0.60;;;14.00;99.90;;;;;;5056136;28;20169;-35
2023/05/10 02:35:38;;;;;;;2.40;0.90;;;13.90;99.90;;;;;;5081192;28;20657;-35
2023/05/10 02:38:06;;;;;;;2.00;1.90;;;14.00;99.90;;;;;;5066909;28;20312;-35
2023/05/10 02:40:33;;;;;;;1.60;0.70;;;13.90;99.90;;;;;;5082884;28;20263;-37
2023/05/10 02:43:02;;;;;;;0.80;0.43;;;13.90;99.90;;;;;;5093884;28;20349;-36
2023/05/10 02:45:31;;;;;;;0.87;0.70;;;13.90;99.90;;;;;;5093007;28;20206;-37
2023/05/10 02:47:58;;;;;;;0.50;0.50;;;13.90;99.90;;;;;;5088336;28;20201;-37
2023/05/10 02:50:28;;;;;;;1.47;0.60;;;13.90;99.90;;;;;;5055888;28;20246;-35
2023/05/10 02:52:59;;;;;;;0.60;0.60;;;13.90;99.90;;;;;;5071955;28;20181;-35
2023/05/10 02:55:32;;;;;;;1.90;0.70;;;13.90;99.90;;;;;;5072628;28;20177;-35
2023/05/10 02:58:00;;;;;;;0.53;0.50;;;13.90;99.90;;;;;;5055514;28;20205;-34
2023/05/10 03:00:26;;;;;;;0.50;0.50;;;13.90;99.90;;;;;;5080640;28;20218;-34
2023/05/10 03:02:53;;;;;;;0.60;0.60;;;13.90;99.90;;;;;;5084350;28;20181;-34
2023/05/10 03:05:19;;;;;;;1.97;0.70;;;14.00;99.90;;;;;;5087770;28;20172;-38
2023/05/10 03:07:46;;;;;;;0.50;0.50;;;13.90;99.90;;;;;;5091976;28;20215;-35
2023/05/10 03:10:13;;;;;;;1.53;0.70;;;13.90;99.90;;;;;;5075215;28;20206;-34
2023/05/10 03:13:14;;;;;;;2.27;0.80;;;13.90;99.90;;;;;;5092675;28;20184;-34
2023/05/10 03:16:05;;;;;;;1.17;0.70;;;13.80;99.90;;;;;;5092324;28;20177;-35
2023/05/10 03:18:43;;;;;;;0.77;0.50;;;13.90;99.90;;;;;;5074700;28;20200;-34
2023/05/10 03:21:12;;;;;;;1.73;0.60;;;13.90;99.90;;;;;;5079891;28;20184;-34
2023/05/10 03:23:50;;;;;;;0.70;0.70;;;13.80;99.90;;;;;;5073115;28;20177;-34
2023/05/10 03:26:38;;;;;;;3.30;0.50;;;13.80;99.90;;;;;;5091879;28;20179;-35
2023/05/10 03:29:14;;;;;;;0.70;0.70;;;13.80;99.90;;;;;;5090598;28;20204;-34
2023/05/10 03:31:40;;;;;;;0.63;0.63;;;13.80;99.90;;;;;;5073085;28;20176;-35
2023/05/10 03:34:07;;;;;;;0.70;0.70;;;13.70;99.90;;;;;;5090084;28;20218;-36
2023/05/10 03:36:33;;;;;;;0.60;0.60;;;13.70;99.90;;;;;;5055372;28;20250;-34
2023/05/10 03:38:59;;;;;;;1.03;0.70;;;13.70;99.90;;;;;;5076555;28;20189;-34
2023/05/10 03:41:26;;;;;;;0.70;0.70;;;13.70;99.90;;;;;;5072279;28;20169;-35
2023/05/10 03:43:52;;;;;;;2.00;0.90;;;13.70;99.90;;;;;;5057570;28;20231;-37
2023/05/10 03:46:24;;;;;;;2.03;0.73;;;13.70;99.90;;;;;;5090902;28;20208;-35
2023/05/10 03:48:51;;;;;;;0.60;0.50;;;13.70;99.90;;;;;;5089019;28;20224;-35
2023/05/10 03:51:18;;;;;;;2.53;0.93;;;13.70;99.90;;;;;;5058016;28;20185;-35
2023/05/10 03:53:44;;;;;;;0.70;0.70;;;13.70;99.90;;;;;;5064594;28;20188;-37
2023/05/10 03:56:11;;;;;;;0.70;0.70;;;13.80;99.90;;;;;;5090481;28;20197;-34
2023/05/10 03:58:37;;;;;;;3.10;0.77;;;13.80;99.90;;;;;;5071647;28;20204;-34
2023/05/10 04:01:03;;;;;;;0.63;0.60;;;13.80;99.90;;;;;;5089244;28;20176;-36
2023/05/10 04:03:29;;;;;;;1.50;0.87;;;13.70;99.90;;;;;;5087195;28;20229;-35
2023/05/10 04:06:00;;;;;;;0.70;0.70;;;13.70;99.90;;;;;;5074284;28;20174;-36
2023/05/10 04:08:27;;;;;;;0.73;0.50;;;13.70;99.90;;;;;;5056186;28;20231;-34
2023/05/10 04:10:53;;;;;;;1.93;0.80;;;13.70;99.90;;;;;;5073246;28;20192;-34
2023/05/10 04:13:19;;;;;;;2.97;0.80;;;13.70;99.90;;;;;;5088536;28;20177;-35
2023/05/10 04:15:45;;;;;;;3.77;0.80;;;13.70;99.90;;;;;;5092207;28;20169;-34
2023/05/10 04:18:11;;;;;;;0.90;0.80;;;13.70;99.90;;;;;;5083193;28;20299;-34
2023/05/10 04:20:37;;;;;;;0.60;0.60;;;13.70;99.90;;;;;;5070623;28;20181;-34
2023/05/10 04:23:02;;;;;;;4.67;0.80;;;13.70;99.90;;;;;;5073013;28;20175;-35
2023/05/10 04:25:28;;;;;;;2.33;0.80;;;13.70;99.90;;;;;;5071458;28;20174;-35
2023/05/10 04:27:54;;;;;;;2.67;0.67;;;13.70;99.90;;;;;;5056210;28;20287;-34
2023/05/10 04:30:20;;;;;;;0.80;0.80;;;13.60;99.90;;;;;;5070322;28;20213;-34
2023/05/10 04:32:45;;;;;;;1.23;0.90;;;13.70;99.90;;;;;;5077171;28;20216;-34
2023/05/10 04:35:11;;;;;;;1.20;0.70;;;13.60;99.90;;;;;;5079130;28;20258;-36
2023/05/10 04:37:37;;;;;;;1.30;1.10;;;13.50;99.90;;;;;;5070597;28;20221;-34
2023/05/10 04:40:03;;;;;;;1.97;0.90;;;13.60;99.90;;;;;;5087852;28;20208;-33
2023/05/10 04:42:29;;;;;;;1.83;0.87;;;13.50;99.90;;;;;;5074759;28;20173;-35
2023/05/10 04:44:55;;;;;;;0.87;0.87;;;13.50;99.90;;;;;;5076383;28;20237;-36
2023/05/10 04:47:21;;;;;;;1.40;0.90;;;13.60;99.90;;;;;;5064484;28;20181;-34
2023/05/10 04:49:47;;;;;;;1.23;1.13;;;13.60;99.90;;;;;;5069342;28;20189;-34
2023/05/10 04:52:14;;;;;;;0.97;0.90;;;13.60;99.90;;;;;;5070215;28;20185;-34
2023/05/10 04:54:40;;;;;;;1.07;0.97;;;13.60;99.90;;;;;;5070478;28;20192;-34
2023/05/10 04:57:06;;;;;;;1.10;0.90;;;13.60;99.90;;;;;;5071094;28;20193;-34
2023/05/10 04:59:32;;;;;;;1.30;0.90;;;13.70;99.90;;;;;;5070700;28;20254;-34
2023/05/10 05:01:58;;;;;;;1.23;1.13;;;13.70;99.90;;;;;;5067998;28;20184;-35
2023/05/10 05:04:23;;;;;;;4.17;1.10;;;13.70;99.90;;;;;;5086259;28;20195;-35
2023/05/10 05:06:49;;;;;;;1.10;1.00;;;13.60;99.90;;;;;;5077581;28;20244;-34
2023/05/10 05:09:16;;;;;;;1.60;1.00;;;13.70;99.90;;;;;;5082600;28;20584;-34
2023/05/10 05:11:42;;;;;;;1.00;0.90;;;13.70;99.90;;;;;;5084938;28;20208;-36
2023/05/10 05:14:08;;;;;;;1.43;0.93;;;13.70;99.90;;;;;;5075829;28;20362;-34
2023/05/10 05:16:34;;;;;;;1.53;0.83;;;13.70;99.90;;;;;;5070081;28;20201;-34
2023/05/10 05:19:00;;;;;;;1.33;0.90;;;13.70;99.90;;;;;;5069949;28;20205;-33
2023/05/10 05:21:26;;;;;;;1.67;1.20;;;13.60;99.90;;;;;;5074093;28;20169;-35
2023/05/10 05:23:52;;;;;;;1.57;0.70;;;13.60;99.90;;;;;;5087471;28;20181;-34
2023/05/10 05:26:18;;;;;;;0.70;0.70;;;13.60;99.90;;;;;;5080457;28;20188;-33
2023/05/10 05:28:44;;;;;;;0.83;0.80;;;13.60;99.90;;;;;;5078491;28;20197;-35
2023/05/10 05:31:10;;;;;;;1.63;0.87;;;13.60;99.90;;;;;;5069510;28;20185;-34
2023/05/10 05:33:36;;;;;;;1.30;0.90;;;13.50;99.90;;;;;;5054130;28;20181;-34
2023/05/10 05:36:06;;;;;;;4.60;1.00;;;13.50;99.90;;;;;;5058373;28;20273;-34
2023/05/10 05:38:32;;;;;;;1.10;0.90;;;13.50;99.90;;;;;;5073214;28;20193;-33
2023/05/10 05:40:58;;;;;;;0.73;0.73;;;13.60;99.90;;;;;;5072843;28;20416;-34
2023/05/10 05:43:24;;;;;;;1.40;1.20;;;13.60;99.90;;;;;;5091124;28;20177;-34
2023/05/10 05:45:53;;;;;;;1.57;1.00;;;13.60;99.90;;;;;;5075064;28;20173;-35
2023/05/10 05:48:21;;;;;;;4.30;1.10;;;13.60;99.90;;;;;;5070065;28;20209;-35
2023/05/10 05:50:48;;;;;;;2.77;1.40;;;13.60;99.90;;;;;;5072773;28;20186;-35
2023/05/10 05:53:14;;;;;;;3.77;1.50;;;13.70;99.90;;;;;;5080820;28;20181;-35
2023/05/10 05:55:40;;;;;;;1.70;1.60;;;13.70;99.90;;;;;;5064967;28;20172;-35
2023/05/10 05:58:07;;;;;;;2.70;1.50;;;13.70;99.90;;;;;;5077477;28;20197;-35
2023/05/10 06:00:33;;;;;;;1.63;1.10;;;13.70;99.90;;;;;;5086215;28;20245;-34
2023/05/10 06:03:00;;;;;;;2.07;1.10;;;13.70;99.90;;;;;;5082051;28;20222;-34
2023/05/10 06:05:26;;;;;;;1.83;1.00;;;13.70;99.90;;;;;;5085254;28;20169;-35
2023/05/10 06:07:52;;;;;;;1.73;1.40;;;13.70;99.90;;;;;;5085491;28;20219;-34
2023/05/10 06:10:17;;;;;;;2.27;1.80;;;13.70;99.90;;;;;;5084359;28;20223;-35
2023/05/10 06:12:43;;;;;;;1.53;1.43;;;13.80;99.90;;;;;;5090184;28;20188;-36
2023/05/10 06:15:09;;;;;;;1.40;1.30;;;13.80;99.90;;;;;;5075460;28;20177;-34
2023/05/10 06:17:35;;;;;;;2.77;1.40;;;13.90;99.90;;;;;;5074380;28;20274;-34
2023/05/10 06:20:02;;;;;;;1.93;1.10;;;13.80;99.90;;;;;;5107151;28;20599;-37
2023/05/10 06:22:28;;;;;;;2.13;1.13;;;13.90;99.90;;;;;;5107388;28;20178;-34
2023/05/10 06:24:54;;;;;;;1.97;1.20;;;13.90;99.90;;;;;;5073128;28;20261;-34
2023/05/10 06:27:20;;;;;;;1.40;1.30;;;13.80;99.90;;;;;;5075195;28;20269;-34
2023/05/10 06:29:45;;;;;;;1.80;1.30;;;13.90;99.90;;;;;;5072759;28;20256;-34
2023/05/10 06:32:11;;;;;;;1.80;1.13;;;13.90;99.90;;;;;;5072627;28;20185;-34
2023/05/10 06:34:37;;;;;;;2.43;1.10;;;13.90;99.90;;;;;;5088760;28;20273;-34
2023/05/10 06:37:05;;;;;;;1.30;1.20;;;13.90;99.90;;;;;;5074690;28;20237;-35
2023/05/10 06:39:31;;;;;;;1.93;1.07;;;13.90;99.90;;;;;;5093983;28;20200;-37
2023/05/10 06:41:57;;;;;;;1.47;1.07;;;13.90;99.90;;;;;;5084912;28;20203;-35
2023/05/10 06:44:22;;;;;;;2.07;1.00;;;13.90;99.90;;;;;;5091971;28;20279;-35
2023/05/10 06:46:48;;;;;;;1.17;1.07;;;13.90;99.90;;;;;;5092935;28;20172;-34
2023/05/10 06:49:14;;;;;;;2.60;1.30;;;13.90;99.90;;;;;;5094127;28;20207;-36
2023/05/10 06:51:40;;;;;;;1.20;1.10;;;13.90;99.90;;;;;;5092566;28;20204;-35
2023/05/10 06:54:06;;;;;;;2.93;0.97;;;13.80;99.90;;;;;;5093871;28;20200;-36
2023/05/10 06:56:32;;;;;;;1.50;0.80;;;13.90;99.90;;;;;;5094058;28;20210;-36
2023/05/10 06:58:58;;;;;;;2.63;0.70;;;13.80;99.90;;;;;;5093761;28;20196;-36
2023/05/10 07:01:23;;;;;;;4.40;1.00;;;13.70;99.90;;;;;;5092306;28;20267;-34
2023/05/10 07:03:50;;;;;;;0.73;0.70;;;13.70;99.90;;;;;;5092250;28;20219;-35
2023/05/10 07:06:16;;;;;;;0.80;0.80;;;13.80;99.90;;;;;;5093696;28;20177;-35
2023/05/10 07:08:42;;;;;;;1.83;0.80;;;13.80;99.90;;;;;;5092398;28;20378;-35
2023/05/10 07:11:07;;;;;;;3.33;0.90;;;13.80;99.90;;;;;;5074433;28;20207;-36
2023/05/10 07:13:34;;;;;;;0.70;0.70;;;13.90;99.90;;;;;;5086617;28;20176;-37
2023/05/10 07:16:01;;;;;;;0.93;0.83;;;13.90;99.90;;;;;;5080029;28;20210;-36
2023/05/10 07:18:38;;;;;;;0.77;0.77;;;13.90;99.90;;;;;;5092264;28;20189;-37
2023/05/10 07:21:50;;;;;;;0.77;0.77;;;14.00;99.90;;;;;;5075312;28;20259;-35
2023/05/10 07:24:17;;;;;;;0.70;0.70;;;14.00;99.90;;;;;;5063903;28;20192;-35
2023/05/10 07:26:45;;;;;;;1.43;0.77;;;14.00;99.90;;;;;;5075371;28;20186;-34
2023/05/10 07:29:11;;;;;;;1.20;0.83;;;14.00;99.90;;;;;;5090705;28;20204;-34
2023/05/10 07:31:37;;;;;;;1.07;0.77;;;14.10;99.90;;;;;;5067635;28;20173;-36
2023/05/10 07:34:04;;;;;;;0.83;0.83;;;14.10;99.90;;;;;;5083029;28;20191;-38
2023/05/10 07:36:32;;;;;;;1.03;0.90;;;14.10;99.90;;;;;;5079464;28;20266;-35
2023/05/10 07:38:59;;;;;;;1.17;0.80;;;14.10;99.90;;;;;;5080814;28;20193;-35
2023/05/10 07:41:27;;;;;;;1.90;0.73;;;14.10;99.90;;;;;;5073437;28;20185;-37
2023/05/10 07:43:53;;;;;;;1.57;0.90;;;14.20;99.90;;;;;;5075769;28;20181;-36
2023/05/10 07:46:20;;;;;;;2.60;1.00;;;14.20;99.90;;;;;;5055515;28;20181;-35
2023/05/10 07:48:46;;;;;;;1.60;1.07;;;14.20;99.90;;;;;;5079993;28;20199;-34
2023/05/10 07:51:13;;;;;;;2.40;0.83;;;14.30;99.90;;;;;;5060540;28;20197;-35
2023/05/10 07:53:39;;;;;;;1.53;0.80;;;14.30;99.90;;;;;;5077066;28;20184;-34
2023/05/10 07:56:22;;;;;;;0.87;0.80;;;14.40;99.90;;;;;;5078588;28;20177;-35
2023/05/10 07:58:48;;;;;;;0.67;0.60;;;14.50;99.90;;;;;;5101601;28;20224;-35
2023/05/10 08:01:14;;;;;;;1.57;0.90;;;14.60;99.90;;;;;;5083345;28;20215;-34
2023/05/10 08:03:40;;;;;;;0.70;0.63;;;14.60;99.90;;;;;;5081820;28;20188;-34
2023/05/10 08:06:06;;;;;;;1.63;0.70;;;14.70;99.90;;;;;;5080749;28;20173;-34
2023/05/10 08:08:32;;;;;;;0.60;0.60;;;14.70;99.90;;;;;;5080195;28;20212;-34
2023/05/10 08:10:58;;;;;;;0.60;0.60;;;14.80;99.90;;;;;;5077339;28;20236;-35
2023/05/10 08:13:25;;;;;;;0.70;0.70;;;14.90;99.90;;;;;;5083189;28;20181;-37
2023/05/10 08:15:52;;;;;;;0.80;0.60;;;15.00;99.90;;;;;;5082783;28;20202;-34
2023/05/10 08:18:19;;;;;;;1.00;0.83;;;15.00;99.90;;;;;;5077478;28;20209;-35
2023/05/10 08:20:46;;;;;;;0.97;0.83;;;15.10;99.90;;;;;;5083837;28;20180;-36
2023/05/10 08:23:13;;;;;;;0.97;0.80;;;15.20;99.90;;;;;;5080458;28;20172;-35
2023/05/10 08:25:39;;;;;;;1.73;0.83;;;15.20;99.90;;;;;;5088944;28;20216;-34
2023/05/10 08:28:04;;;;;;;1.30;0.63;;;15.30;99.90;;;;;;5081344;28;20220;-34
2023/05/10 08:30:30;;;;;;;0.70;0.70;;;15.30;99.90;;;;;;5077457;28;20271;-37
2023/05/10 08:32:56;;;;;;;0.43;0.43;;;15.30;99.90;;;;;;5077454;28;20183;-34
2023/05/10 08:35:22;;;;;;;0.77;0.50;;;15.30;99.90;;;;;;5082893;28;20199;-36
2023/05/10 08:37:48;;;;;;;1.40;0.50;;;15.40;99.90;;;;;;5086950;28;20208;-36
2023/05/10 08:40:15;;;;;;;0.70;0.60;;;15.50;99.90;;;;;;5072226;28;20185;-37
2023/05/10 08:42:48;;;;;;;0.83;0.53;;;15.60;99.90;;;;;;5068486;28;20173;-34
2023/05/10 08:45:16;;;;;;;0.77;0.63;;;15.70;99.90;;;;;;5071990;28;20173;-37
2023/05/10 08:47:42;;;;;;;1.67;0.60;;;15.70;99.90;;;;;;5062986;28;20227;-36
2023/05/10 08:50:10;;;;;;;0.67;0.40;;;15.70;99.90;;;;;;5074713;28;20179;-35
2023/05/10 08:52:39;;;;;;;1.60;0.50;;;15.80;99.90;;;;;;5069943;28;20181;-35
2023/05/10 08:55:16;;;;;;;1.43;0.50;;;15.90;99.90;;;;;;5083745;28;20208;-37
2023/05/10 08:57:43;;;;;;;1.20;0.60;;;15.90;99.90;;;;;;5061146;28;20678;-38
2023/05/10 09:00:10;;;;;;;1.33;0.60;;;16.00;99.90;;;;;;5079022;28;20176;-37
2023/05/10 09:02:37;;;;;;;0.80;0.77;;;16.00;99.90;;;;;;5077384;28;20281;-39
2023/05/10 09:05:04;;;;;;;0.60;0.50;;;16.00;99.90;;;;;;5081969;28;20183;-37
2023/05/10 09:07:31;;;;;;;0.60;0.60;;;16.00;99.90;;;;;;5076381;28;20184;-37
2023/05/10 09:09:58;;;;;;;0.50;0.50;;;16.00;99.90;;;;;;5091680;28;20185;-37
2023/05/10 09:12:24;;;;;;;0.60;0.60;;;16.00;99.90;;;;;;5056716;28;20181;-39
2023/05/10 09:14:52;;;;;;;0.60;0.60;;;16.10;99.90;;;;;;5080017;28;20177;-37
2023/05/10 09:17:18;;;;;;;0.53;0.50;;;16.10;99.90;;;;;;5063703;28;20193;-38
2023/05/10 09:19:46;;;;;;;0.60;0.60;;;16.20;99.90;;;;;;5080961;28;20237;-37
2023/05/10 09:22:13;;;;;;;0.60;0.40;;;16.20;99.90;;;;;;5055699;28;20218;-38
2023/05/10 09:24:44;;;;;;;1.63;1.20;;;16.40;99.90;;;;;;5083506;28;20260;-38
2023/05/10 09:27:09;;;;;;;1.20;0.97;;;16.50;99.90;;;;;;5078497;28;20184;-38
2023/05/10 09:29:44;;;;;;;1.13;0.90;;;16.50;99.90;;;;;;5076628;28;20997;-37
2023/05/10 09:32:10;;;;;;;1.53;0.97;;;16.70;99.90;;;;;;5081117;28;20238;-38
2023/05/10 09:34:39;;;;;;;1.20;1.00;;;16.80;99.90;;;;;;5068044;28;20177;-34
2023/05/10 09:37:05;;;;;;;1.15;0.70;;;16.90;99.90;;;;;;5075131;28;20209;-34
2023/05/10 09:39:39;;;;;;;1.52;0.70;;;17.00;99.90;;;;;;5073511;28;20207;-34
2023/05/10 09:42:08;;;;;;;0.95;0.43;;;17.00;99.90;;;;;;5064382;28;20180;-36
2023/05/10 09:44:35;;;;;;;0.82;0.82;;;17.10;99.90;;;;;;5070168;28;20205;-36
2023/05/10 09:47:05;;;;;;;1.50;1.40;;;17.20;99.90;;;;;;5066553;28;20196;-35
2023/05/10 09:49:32;;;;;;;1.13;0.80;;;17.10;99.90;;;;;;5081931;28;20201;-36
2023/05/10 09:52:06;;;;;;;0.50;0.50;;;16.90;99.90;;;;;;5077443;28;20295;-37
2023/05/10 09:54:33;;;;;;;0.65;0.63;;;16.60;99.90;;;;;;5084471;28;20237;-34
2023/05/10 09:56:59;;;;;;;0.50;0.50;;;16.30;99.90;;;;;;5080654;28;20227;-35
2023/05/10 09:59:27;;;;;;;0.60;0.60;;;16.00;99.90;;;;;;5067028;28;20192;-34
2023/05/10 10:02:00;;;;;;;1.70;0.50;;;15.70;99.90;;;;;;5079504;28;20177;-34
2023/05/10 10:04:26;;;;;;;0.60;0.60;;;15.60;99.90;;;;;;5088083;28;20246;-35
2023/05/10 10:07:05;;;;;;;0.77;0.63;;;15.50;99.90;;;;;;5089016;28;20181;-34
2023/05/10 10:09:31;;;;;;;2.13;0.70;;;15.50;99.90;;;;;;5077402;28;20287;-35
2023/05/10 10:11:58;;;;;;;1.60;0.60;;;15.40;99.90;;;;;;5090303;28;20188;-35
2023/05/10 10:14:25;;;;;;;1.40;0.70;;;15.50;99.90;;;;;;5072442;28;20185;-34
2023/05/10 10:16:52;;;;;;;1.40;0.50;;;15.60;99.90;;;;;;5088194;28;20212;-34
2023/05/10 10:19:21;;;;;;;1.47;0.70;;;15.60;99.90;;;;;;5073480;28;20189;-35
2023/05/10 10:21:48;;;;;;;1.33;0.60;;;15.70;99.90;;;;;;5075844;28;20169;-34
2023/05/10 10:24:13;;;;;;;0.50;0.50;;;15.80;99.90;;;;;;5089599;28;20181;-34
2023/05/10 10:26:42;;;;;;;1.13;0.60;;;16.00;99.90;;;;;;5084323;28;20231;-35
2023/05/10 10:29:28;;;;;;;1.50;0.80;;;16.20;99.90;;;;;;5077630;28;20282;-36
2023/05/10 10:32:01;;;;;;;2.53;1.17;;;16.40;99.90;;;;;;5053429;28;20192;-35
2023/05/10 10:34:30;;;;;;;0.70;0.70;;;16.50;99.90;;;;;;5087507;28;20196;-34
2023/05/10 10:36:57;;;;;;;1.50;0.70;;;16.60;99.90;;;;;;5071235;28;20215;-36
2023/05/10 10:39:26;;;;;;;2.07;0.80;;;16.60;99.90;;;;;;5077079;28;20288;-35
2023/05/10 10:41:55;;;;;;;1.77;0.80;;;16.70;99.90;;;;;;5053115;28;20185;-34
2023/05/10 10:44:38;;;;;;;0.80;0.80;;;16.80;99.90;;;;;;5080652;28;20187;-38
2023/05/10 10:47:24;;;;;;;0.70;0.70;;;16.80;99.90;;;;;;5090055;28;20203;-38
2023/05/10 10:50:02;;;;;;;2.10;0.82;;;16.90;99.90;;;;;;5078271;28;20185;-36
2023/05/10 10:52:33;;;;;;;2.42;0.50;;;16.90;99.90;;;;;;5072484;28;20241;-38
2023/05/10 10:55:32;;;;;;;0.40;0.40;;;17.00;99.90;;;;;;5074067;28;20170;-38
2023/05/10 10:58:02;;;;;;;0.50;0.40;;;16.80;99.90;;;;;;5061602;28;20228;-37
2023/05/10 11:00:31;;;;;;;0.47;0.47;;;16.80;99.90;;;;;;5083371;28;20185;-35
2023/05/10 11:03:16;;;;;;;1.73;0.60;;;16.70;99.90;;;;;;5076755;28;20196;-38
2023/05/10 11:05:46;;;;;;;0.50;0.50;;;16.70;99.90;;;;;;5086289;28;20237;-35
2023/05/10 11:08:13;;;;;;;0.95;0.50;;;16.50;99.90;;;;;;5089134;28;20683;-34
2023/05/10 11:10:40;;;;;;;0.50;0.50;;;16.30;99.90;;;;;;5073023;28;20206;-34
2023/05/10 11:13:10;;;;;;;1.37;0.77;;;16.10;99.90;;;;;;5091014;28;20208;-35
2023/05/10 11:15:38;;;;;;;1.20;0.60;;;15.80;99.90;;;;;;5081997;28;20180;-35
2023/05/10 11:18:23;;;;;;;1.10;0.57;;;15.70;99.90;;;;;;5086003;28;20217;-35
2023/05/10 11:21:05;;;;;;;0.83;0.60;;;15.60;99.90;;;;;;5091378;28;20180;-37
2023/05/10 11:23:32;;;;;;;0.97;0.60;;;15.50;99.90;;;;;;5071800;28;20246;-34
2023/05/10 11:26:01;;;;;;;1.70;0.87;;;15.50;99.90;;;;;;5073316;28;20200;-34
2023/05/10 11:28:28;;;;;;;2.10;0.70;;;15.40;99.90;;;;;;5072664;28;20197;-35
2023/05/10 11:30:54;;;;;;;3.30;1.00;;;15.40;99.90;;;;;;5072839;28;20184;-34
2023/05/10 11:33:20;;;;;;;0.80;0.70;;;15.40;99.90;;;;;;5072558;28;20173;-35
2023/05/10 11:35:46;;;;;;;1.33;0.57;;;15.20;99.90;;;;;;5088684;28;20181;-34
2023/05/10 11:38:13;;;;;;;1.50;0.90;;;15.10;99.90;;;;;;5074707;28;20220;-34
2023/05/10 11:40:40;;;;;;;1.70;0.83;;;14.80;99.90;;;;;;5071332;28;20248;-35
2023/05/10 11:43:05;;;;;;;1.43;0.93;;;14.80;99.90;;;;;;5071437;28;20253;-35
2023/05/10 11:45:35;;;;;;;2.37;1.10;;;14.70;99.90;;;;;;5076121;28;20177;-35
2023/05/10 11:48:02;;;;;;;1.60;0.80;;;14.80;99.90;;;;;;5062681;28;20205;-35
2023/05/10 11:50:28;;;;;;;1.50;0.87;;;15.00;99.90;;;;;;5054990;28;20576;-35
2023/05/10 11:52:55;;;;;;;2.10;0.80;;;15.10;99.90;;;;;;5083060;28;20200;-34
2023/05/10 11:55:24;;;;;;;1.33;0.70;;;15.20;99.90;;;;;;5080578;28;20208;-35
2023/05/10 11:58:01;;;;;;;1.90;0.90;;;15.30;99.90;;;;;;5080919;28;20236;-35
2023/05/10 12:00:27;;;;;;;2.13;0.80;;;15.30;99.90;;;;;;5078648;28;20185;-34
2023/05/10 12:02:53;;;;;;;2.27;0.70;;;15.30;99.90;;;;;;5073624;28;20248;-35
2023/05/10 12:05:19;;;;;;;1.40;0.90;;;15.30;99.90;;;;;;5080280;28;20173;-38
2023/05/10 12:07:45;;;;;;;2.20;1.10;;;15.30;99.90;;;;;;5083114;28;20201;-35
2023/05/10 12:10:17;;;;;;;2.53;0.90;;;15.30;99.90;;;;;;5078306;28;20183;-34
2023/05/10 12:12:45;;;;;;;1.50;0.90;;;15.20;99.90;;;;;;5080846;28;20216;-39
2023/05/10 12:15:24;;;;;;;1.27;0.87;;;15.30;99.90;;;;;;5082305;28;20181;-34
2023/05/10 12:17:51;;;;;;;2.53;0.97;;;15.40;99.90;;;;;;5087181;28;20227;-33
2023/05/10 12:20:22;;;;;;;2.03;1.27;;;15.40;99.90;;;;;;5082242;28;20172;-35
2023/05/10 12:22:52;;;;;;;1.20;0.90;;;15.50;99.90;;;;;;5088437;28;20179;-35
2023/05/10 12:25:20;;;;;;;1.97;1.00;;;15.60;99.90;;;;;;5082531;28;20173;-34
2023/05/10 12:27:56;;;;;;;1.90;0.93;;;15.60;99.90;;;;;;5080490;28;20194;-35
2023/05/10 12:30:27;;;;;;;1.30;0.80;;;15.60;99.90;;;;;;5078610;28;20172;-34
2023/05/10 12:32:53;;;;;;;1.90;0.70;;;15.50;99.90;;;;;;5087975;28;20187;-34
2023/05/10 12:35:23;;;;;;;2.80;0.87;;;15.50;99.90;;;;;;5090849;28;20181;-34
2023/05/10 12:37:51;;;;;;;0.83;0.77;;;15.50;99.90;;;;;;5089959;28;20208;-34
2023/05/10 12:40:17;;;;;;;3.13;1.00;;;15.50;99.90;;;;;;5082869;28;20170;-36
2023/05/10 12:42:44;;;;;;;5.43;0.90;;;15.60;99.90;;;;;;5090423;28;20230;-35
2023/05/10 12:45:11;;;;;;;1.70;0.97;;;15.70;99.90;;;;;;5090531;28;20178;-36
2023/05/10 12:47:37;;;;;;;2.50;1.00;;;15.80;99.90;;;;;;5090397;28;20205;-34
2023/05/10 12:50:04;;;;;;;2.50;1.00;;;15.80;99.90;;;;;;5091362;28;20181;-35
2023/05/10 12:52:31;;;;;;;1.33;0.80;;;15.90;99.90;;;;;;5091314;28;20271;-38
2023/05/10 12:54:59;;;;;;;1.27;0.87;;;16.00;99.90;;;;;;5090055;28;20177;-35